sensor_id;sensor_type;location;lat;lon;timestamp;pressure;altitude;pressure_sealevel;temperature;humidity
11347;BME280;5728;42.722;23.258;2023-11-21T00:00:56;94606.53;;;4.83;94.13
11347;BME280;5728;42.722;23.258;2023-11-21T00:03:25;94610.47;;;4.14;95.56
11347;BME280;5728;42.722;23.258;2023-11-21T00:05:53;94615.75;;;4.41;97.11
11347;BME280;5728;42.722;23.258;2023-11-21T00:08:20;94609.03;;;4.68;97.26
11347;BME280;5728;42.722;23.258;2023-11-21T00:10:47;94605.66;;;4.87;97.12
11347;BME280;5728;42.722;23.258;2023-11-21T00:13:14;94612.59;;;5.12;95.41
11347;BME280;5728;42.722;23.258;2023-11-21T00:15:41;94609.19;;;5.22;95.08
11347;BME280;5728;42.722;23.258;2023-11-21T00:18:08;94602.38;;;5.48;92.72
11347;BME280;5728;42.722;23.258;2023-11-21T00:20:37;94605.78;;;5.44;93.20
11347;BME280;5728;42.722;23.258;2023-11-21T00:23:03;94604.09;;;5.72;91.62
11347;BME280;5728;42.722;23.258;2023-11-21T00:25:30;94605.00;;;5.85;90.71
11347;BME280;5728;42.722;23.258;2023-11-21T00:27:57;94605.84;;;5.93;89.01
11347;BME280;5728;42.722;23.258;2023-11-21T00:30:26;94589.53;;;6.04;88.78
11347;BME280;5728;42.722;23.258;2023-11-21T00:32:54;94599.81;;;6.12;87.32
11347;BME280;5728;42.722;23.258;2023-11-21T00:35:21;94598.13;;;6.00;89.18
11347;BME280;5728;42.722;23.258;2023-11-21T00:37:49;94604.06;;;5.16;89.29
11347;BME280;5728;42.722;23.258;2023-11-21T00:40:16;94599.72;;;5.04;92.97
11347;BME280;5728;42.722;23.258;2023-11-21T00:42:44;94599.72;;;5.03;93.77
11347;BME280;5728;42.722;23.258;2023-11-21T00:45:12;94603.22;;;5.40;92.51
11347;BME280;5728;42.722;23.258;2023-11-21T00:47:38;94605.81;;;5.38;91.89
11347;BME280;5728;42.722;23.258;2023-11-21T00:50:06;94605.78;;;5.34;91.49
11347;BME280;5728;42.722;23.258;2023-11-21T00:52:33;94593.81;;;5.61;90.74
11347;BME280;5728;42.722;23.258;2023-11-21T00:55:01;94591.25;;;5.67;90.37
11347;BME280;5728;42.722;23.258;2023-11-21T00:57:28;94592.97;;;5.65;91.86
11347;BME280;5728;42.722;23.258;2023-11-21T00:59:55;94583.50;;;5.79;90.67
11347;BME280;5728;42.722;23.258;2023-11-21T01:02:22;94583.53;;;5.92;89.02
11347;BME280;5728;42.722;23.258;2023-11-21T01:04:49;94583.56;;;5.86;88.58
11347;BME280;5728;42.722;23.258;2023-11-21T01:07:15;94584.38;;;5.47;89.20
11347;BME280;5728;42.722;23.258;2023-11-21T01:09:42;94580.06;;;5.20;90.62
11347;BME280;5728;42.722;23.258;2023-11-21T01:12:11;94585.22;;;5.49;91.35
11347;BME280;5728;42.722;23.258;2023-11-21T01:14:38;94583.53;;;5.43;90.79
11347;BME280;5728;42.722;23.258;2023-11-21T01:17:05;94586.94;;;5.59;90.58
11347;BME280;5728;42.722;23.258;2023-11-21T01:19:32;94582.66;;;5.70;89.26
11347;BME280;5728;42.722;23.258;2023-11-21T01:21:59;94590.41;;;5.68;88.54
11347;BME280;5728;42.722;23.258;2023-11-21T01:24:26;94583.53;;;5.55;88.83
11347;BME280;5728;42.722;23.258;2023-11-21T01:26:52;94582.66;;;5.65;88.70
11347;BME280;5728;42.722;23.258;2023-11-21T01:29:20;94577.53;;;5.73;88.66
11347;BME280;5728;42.722;23.258;2023-11-21T01:31:47;94577.53;;;5.70;88.30
11347;BME280;5728;42.722;23.258;2023-11-21T01:34:14;94574.09;;;5.57;88.69
11347;BME280;5728;42.722;23.258;2023-11-21T01:36:41;94593.81;;;5.70;88.21
11347;BME280;5728;42.722;23.258;2023-11-21T01:39:08;94595.53;;;5.80;87.56
11347;BME280;5728;42.722;23.258;2023-11-21T01:41:34;94595.53;;;5.77;87.19
11347;BME280;5728;42.722;23.258;2023-11-21T01:44:01;94581.81;;;5.72;87.15
11347;BME280;5728;42.722;23.258;2023-11-21T01:46:30;94576.66;;;5.66;87.86
11347;BME280;5728;42.722;23.258;2023-11-21T01:48:56;94574.94;;;5.74;87.35
11347;BME280;5728;42.722;23.258;2023-11-21T01:51:23;94575.78;;;5.61;87.10
11347;BME280;5728;42.722;23.258;2023-11-21T01:53:52;94574.94;;;5.43;88.06
11347;BME280;5728;42.722;23.258;2023-11-21T01:56:19;94578.34;;;5.39;88.11
11347;BME280;5728;42.722;23.258;2023-11-21T01:58:47;94580.09;;;5.35;87.94
11347;BME280;5728;42.722;23.258;2023-11-21T02:01:14;94581.78;;;5.51;87.44
11347;BME280;5728;42.722;23.258;2023-11-21T02:03:42;94586.06;;;5.46;87.80
11347;BME280;5728;42.722;23.258;2023-11-21T02:06:09;94585.22;;;5.23;87.88
11347;BME280;5728;42.722;23.258;2023-11-21T02:08:36;94581.81;;;5.33;86.32
11347;BME280;5728;42.722;23.258;2023-11-21T02:11:05;94578.31;;;5.07;86.81
11347;BME280;5728;42.722;23.258;2023-11-21T02:13:32;94580.06;;;5.11;87.26
11347;BME280;5728;42.722;23.258;2023-11-21T02:16:01;94581.72;;;5.00;88.22
11347;BME280;5728;42.722;23.258;2023-11-21T02:18:30;94593.75;;;5.13;87.51
11347;BME280;5728;42.722;23.258;2023-11-21T02:20:58;94585.22;;;5.31;86.83
11347;BME280;5728;42.722;23.258;2023-11-21T02:23:29;94566.28;;;4.94;86.54
11347;BME280;5728;42.722;23.258;2023-11-21T02:25:57;94580.72;;;4.59;88.17
11347;BME280;5728;42.722;23.258;2023-11-21T02:28:24;94573.13;;;4.80;89.23
11347;BME280;5728;42.722;23.258;2023-11-21T02:30:52;94574.03;;;5.03;91.02
11347;BME280;5728;42.722;23.258;2023-11-21T02:33:21;94564.47;;;4.57;92.11
11347;BME280;5728;42.722;23.258;2023-11-21T02:35:48;94576.47;;;4.61;91.67
11347;BME280;5728;42.722;23.258;2023-11-21T02:38:14;94573.03;;;4.56;90.08
11347;BME280;5728;42.722;23.258;2023-11-21T02:40:43;94574.72;;;4.50;91.24
11347;BME280;5728;42.722;23.258;2023-11-21T02:43:10;94572.22;;;4.70;91.09
11347;BME280;5728;42.722;23.258;2023-11-21T02:45:37;94568.84;;;4.76;90.72
11347;BME280;5728;42.722;23.258;2023-11-21T02:48:04;94568.75;;;4.58;91.35
11347;BME280;5728;42.722;23.258;2023-11-21T02:50:31;94583.19;;;4.33;90.60
11347;BME280;5728;42.722;23.258;2023-11-21T02:52:58;94571.09;;;4.12;93.47
11347;BME280;5728;42.722;23.258;2023-11-21T02:55:25;94576.34;;;4.30;94.86
11347;BME280;5728;42.722;23.258;2023-11-21T02:57:54;94569.09;;;3.70;95.51
11347;BME280;5728;42.722;23.258;2023-11-21T03:00:21;94565.47;;;3.40;97.11
11347;BME280;5728;42.722;23.258;2023-11-21T03:02:49;94565.28;;;3.17;97.60
11347;BME280;5728;42.722;23.258;2023-11-21T03:05:16;94568.81;;;3.33;97.36
11347;BME280;5728;42.722;23.258;2023-11-21T03:07:45;94558.81;;;3.60;97.32
11347;BME280;5728;42.722;23.258;2023-11-21T03:10:11;94561.38;;;3.63;98.10
11347;BME280;5728;42.722;23.258;2023-11-21T03:12:38;94572.59;;;3.77;97.65
11347;BME280;5728;42.722;23.258;2023-11-21T03:15:07;94569.22;;;3.84;97.24
11347;BME280;5728;42.722;23.258;2023-11-21T03:17:35;94573.59;;;4.00;97.57
11347;BME280;5728;42.722;23.258;2023-11-21T03:20:02;94582.31;;;4.28;95.57
11347;BME280;5728;42.722;23.258;2023-11-21T03:22:29;94581.50;;;4.41;94.17
11347;BME280;5728;42.722;23.258;2023-11-21T03:24:56;94578.19;;;4.65;93.12
11347;BME280;5728;42.722;23.258;2023-11-21T03:27:23;94580.78;;;4.72;91.28
11347;BME280;5728;42.722;23.258;2023-11-21T03:29:50;94585.09;;;4.78;91.70
11347;BME280;5728;42.722;23.258;2023-11-21T03:32:18;94580.81;;;4.78;91.06
11347;BME280;5728;42.722;23.258;2023-11-21T03:34:56;94573.94;;;4.74;90.68
11347;BME280;5728;42.722;23.258;2023-11-21T03:37:23;94577.31;;;4.55;89.88
11347;BME280;5728;42.722;23.258;2023-11-21T03:39:50;94578.69;;;3.96;91.04
11347;BME280;5728;42.722;23.258;2023-11-21T03:42:17;94567.22;;;3.44;94.16
11347;BME280;5728;42.722;23.258;2023-11-21T03:44:44;94556.41;;;3.84;95.65
11347;BME280;5728;42.722;23.258;2023-11-21T03:47:10;94560.81;;;4.09;95.31
11347;BME280;5728;42.722;23.258;2023-11-21T03:49:39;94549.03;;;4.44;94.24
11347;BME280;5728;42.722;23.258;2023-11-21T03:52:06;94548.25;;;4.61;91.90
11347;BME280;5728;42.722;23.258;2023-11-21T03:54:34;94544.84;;;4.77;91.67
11347;BME280;5728;42.722;23.258;2023-11-21T03:57:02;94551.72;;;4.87;90.30
11347;BME280;5728;42.722;23.258;2023-11-21T03:59:29;94561.19;;;5.00;89.89
11347;BME280;5728;42.722;23.258;2023-11-21T04:01:56;94551.78;;;5.11;89.20
11347;BME280;5728;42.722;23.258;2023-11-21T04:04:23;94548.31;;;4.94;88.83
11347;BME280;5728;42.722;23.258;2023-11-21T04:06:51;94540.63;;;5.00;89.04
11347;BME280;5728;42.722;23.258;2023-11-21T04:09:19;94534.63;;;4.95;89.14
11347;BME280;5728;42.722;23.258;2023-11-21T04:11:45;94543.16;;;4.83;88.04
11347;BME280;5728;42.722;23.258;2023-11-21T04:14:13;94536.31;;;4.91;87.39
11347;BME280;5728;42.722;23.258;2023-11-21T04:16:40;94555.16;;;4.83;87.48
11347;BME280;5728;42.722;23.258;2023-11-21T04:19:07;94555.09;;;4.74;87.91
11347;BME280;5728;42.722;23.258;2023-11-21T04:21:35;94554.25;;;4.75;87.54
11347;BME280;5728;42.722;23.258;2023-11-21T04:24:04;94555.94;;;4.61;87.53
11347;BME280;5728;42.722;23.258;2023-11-21T04:26:31;94562.81;;;4.68;88.14
11347;BME280;5728;42.722;23.258;2023-11-21T04:28:58;94561.13;;;4.76;87.57
11347;BME280;5728;42.722;23.258;2023-11-21T04:31:25;94555.06;;;4.59;88.15
11347;BME280;5728;42.722;23.258;2023-11-21T04:33:52;94560.22;;;4.60;87.96
11347;BME280;5728;42.722;23.258;2023-11-21T04:36:19;94563.53;;;4.35;88.73
11347;BME280;5728;42.722;23.258;2023-11-21T04:38:46;94552.50;;;4.56;88.24
11347;BME280;5728;42.722;23.258;2023-11-21T04:41:14;94562.69;;;4.42;88.56
11347;BME280;5728;42.722;23.258;2023-11-21T04:43:41;94556.78;;;4.60;87.05
11347;BME280;5728;42.722;23.258;2023-11-21T04:46:09;94555.97;;;4.70;86.91
11347;BME280;5728;42.722;23.258;2023-11-21T04:48:35;94555.06;;;4.59;88.18
11347;BME280;5728;42.722;23.258;2023-11-21T04:51:02;94572.97;;;4.43;89.00
11347;BME280;5728;42.722;23.258;2023-11-21T04:53:29;94572.19;;;4.61;88.67
11347;BME280;5728;42.722;23.258;2023-11-21T04:55:56;94561.91;;;4.57;88.43
11347;BME280;5728;42.722;23.258;2023-11-21T04:58:24;94567.94;;;4.69;90.46
11347;BME280;5728;42.722;23.258;2023-11-21T05:00:51;94561.13;;;4.73;89.79
11347;BME280;5728;42.722;23.258;2023-11-21T05:03:18;94560.25;;;4.71;89.10
11347;BME280;5728;42.722;23.258;2023-11-21T05:05:45;94571.19;;;4.33;89.40
11347;BME280;5728;42.722;23.258;2023-11-21T05:08:12;94558.34;;;4.24;90.32
11347;BME280;5728;42.722;23.258;2023-11-21T05:10:38;94553.16;;;4.14;93.63
11347;BME280;5728;42.722;23.258;2023-11-21T05:13:06;94547.72;;;3.62;95.37
11347;BME280;5728;42.722;23.258;2023-11-21T05:15:36;94548.72;;;3.87;96.23
11347;BME280;5728;42.722;23.258;2023-11-21T05:18:04;94547.75;;;3.67;96.57
11347;BME280;5728;42.722;23.258;2023-11-21T05:20:30;94548.19;;;3.17;96.31
11347;BME280;5728;42.722;23.258;2023-11-21T05:22:58;94541.59;;;3.44;97.96
11347;BME280;5728;42.722;23.258;2023-11-21T05:25:25;94554.28;;;3.27;97.15
11347;BME280;5728;42.722;23.258;2023-11-21T05:27:52;94557.81;;;3.44;99.06
11347;BME280;5728;42.722;23.258;2023-11-21T05:30:20;94559.69;;;3.66;98.23
11347;BME280;5728;42.722;23.258;2023-11-21T05:32:49;94572.00;;;4.17;97.47
11347;BME280;5728;42.722;23.258;2023-11-21T05:35:16;94572.81;;;4.13;97.99
11347;BME280;5728;42.722;23.258;2023-11-21T05:37:43;94570.94;;;3.86;97.75
11347;BME280;5728;42.722;23.258;2023-11-21T05:40:11;94568.44;;;3.93;98.26
11347;BME280;5728;42.722;23.258;2023-11-21T05:42:39;94565.00;;;3.94;99.38
11347;BME280;5728;42.722;23.258;2023-11-21T05:45:06;94564.22;;;4.05;98.39
11347;BME280;5728;42.722;23.258;2023-11-21T05:47:37;94577.97;;;4.15;97.70
11347;BME280;5728;42.722;23.258;2023-11-21T05:50:07;94563.56;;;4.44;97.49
11347;BME280;5728;42.722;23.258;2023-11-21T05:52:37;94568.78;;;4.61;96.55
11347;BME280;5728;42.722;23.258;2023-11-21T05:55:05;94578.19;;;4.65;95.31
11347;BME280;5728;42.722;23.258;2023-11-21T05:57:33;94561.06;;;4.64;94.47
11347;BME280;5728;42.722;23.258;2023-11-21T06:00:02;94561.13;;;4.82;94.41
11347;BME280;5728;42.722;23.258;2023-11-21T06:02:34;94564.59;;;4.99;92.21
11347;BME280;5728;42.722;23.258;2023-11-21T06:05:01;94571.47;;;5.03;91.90
11347;BME280;5728;42.722;23.258;2023-11-21T06:07:30;94571.38;;;4.70;92.67
11347;BME280;5728;42.722;23.258;2023-11-21T06:09:57;94578.09;;;4.43;94.16
11347;BME280;5728;42.722;23.258;2023-11-21T06:12:24;94593.53;;;4.45;94.42
11347;BME280;5728;42.722;23.258;2023-11-21T06:14:51;94581.53;;;4.48;91.74
11347;BME280;5728;42.722;23.258;2023-11-21T06:17:18;94577.25;;;4.46;91.68
11347;BME280;5728;42.722;23.258;2023-11-21T06:19:45;94573.03;;;4.62;90.63
11347;BME280;5728;42.722;23.258;2023-11-21T06:22:12;94584.19;;;4.62;88.95
11347;BME280;5728;42.722;23.258;2023-11-21T06:24:40;94587.66;;;4.79;89.16
11347;BME280;5728;42.722;23.258;2023-11-21T06:27:07;94584.19;;;4.61;90.01
11347;BME280;5728;42.722;23.258;2023-11-21T06:29:34;94583.38;;;4.77;89.42
11347;BME280;5728;42.722;23.258;2023-11-21T06:32:02;94588.56;;;4.92;89.12
11347;BME280;5728;42.722;23.258;2023-11-21T06:34:30;94589.41;;;4.88;87.53
11347;BME280;5728;42.722;23.258;2023-11-21T06:36:57;94588.63;;;5.14;87.47
11347;BME280;5728;42.722;23.258;2023-11-21T06:39:24;94589.50;;;5.33;85.92
11347;BME280;5728;42.722;23.258;2023-11-21T06:41:52;94593.75;;;5.19;87.45
11347;BME280;5728;42.722;23.258;2023-11-21T06:44:20;94603.19;;;5.22;87.27
11347;BME280;5728;42.722;23.258;2023-11-21T06:46:47;94609.19;;;5.31;88.34
11347;BME280;5728;42.722;23.258;2023-11-21T06:49:14;94607.50;;;5.26;89.22
11347;BME280;5728;42.722;23.258;2023-11-21T06:51:41;94599.81;;;5.45;89.26
11347;BME280;5728;42.722;23.258;2023-11-21T06:54:08;94598.94;;;5.49;88.40
11347;BME280;5728;42.722;23.258;2023-11-21T06:56:35;94593.81;;;5.55;90.09
11347;BME280;5728;42.722;23.258;2023-11-21T06:59:05;94603.22;;;5.40;90.85
11347;BME280;5728;42.722;23.258;2023-11-21T07:01:32;94605.81;;;5.59;90.19
11347;BME280;5728;42.722;23.258;2023-11-21T07:04:07;94607.53;;;5.48;89.23
11347;BME280;5728;42.722;23.258;2023-11-21T07:06:34;94599.81;;;5.45;89.67
11347;BME280;5728;42.722;23.258;2023-11-21T07:09:02;94596.41;;;5.66;89.87
11347;BME280;5728;42.722;23.258;2023-11-21T07:11:29;94592.97;;;5.77;88.67
11347;BME280;5728;42.722;23.258;2023-11-21T07:13:56;94584.41;;;6.01;89.99
11347;BME280;5728;42.722;23.258;2023-11-21T07:16:24;94581.75;;;6.36;89.21
11347;BME280;5728;42.722;23.258;2023-11-21T07:18:52;94585.97;;;6.63;88.21
11347;BME280;5728;42.722;23.258;2023-11-21T07:21:20;94587.50;;;7.03;85.96
11347;BME280;5728;42.722;23.258;2023-11-21T07:23:47;94585.69;;;7.25;82.46
11347;BME280;5728;42.722;23.258;2023-11-21T07:26:14;94589.09;;;7.25;82.30
11347;BME280;5728;42.722;23.258;2023-11-21T07:28:41;94590.13;;;6.92;83.14
11347;BME280;5728;42.722;23.258;2023-11-21T07:31:07;94596.84;;;7.27;83.51
11347;BME280;5728;42.722;23.258;2023-11-21T07:33:37;94591.78;;;7.12;83.19
11347;BME280;5728;42.722;23.258;2023-11-21T07:36:04;94592.47;;;7.39;82.56
11347;BME280;5728;42.722;23.258;2023-11-21T07:38:32;94595.06;;;7.33;83.45
11347;BME280;5728;42.722;23.258;2023-11-21T07:40:59;94586.44;;;7.39;83.22
11347;BME280;5728;42.722;23.258;2023-11-21T07:43:26;94589.78;;;7.53;82.90
11347;BME280;5728;42.722;23.258;2023-11-21T07:46:00;94587.84;;;7.85;81.09
11347;BME280;5728;42.722;23.258;2023-11-21T07:48:28;94583.38;;;8.02;80.05
11347;BME280;5728;42.722;23.258;2023-11-21T07:50:56;94584.09;;;8.18;79.99
11347;BME280;5728;42.722;23.258;2023-11-21T07:53:23;94590.03;;;8.29;78.26
11347;BME280;5728;42.722;23.258;2023-11-21T07:55:50;94578.06;;;8.20;80.67
11347;BME280;5728;42.722;23.258;2023-11-21T07:58:17;94580.84;;;7.98;81.41
11347;BME280;5728;42.722;23.258;2023-11-21T08:00:45;94577.47;;;7.88;80.26
11347;BME280;5728;42.722;23.258;2023-11-21T08:03:13;94577.31;;;8.03;80.35
11347;BME280;5728;42.722;23.258;2023-11-21T08:05:40;94569.28;;;8.40;77.87
11347;BME280;5728;42.722;23.258;2023-11-21T08:08:08;94569.63;;;8.00;79.59
11347;BME280;5728;42.722;23.258;2023-11-21T08:10:35;94572.25;;;7.94;80.12
11347;BME280;5728;42.722;23.258;2023-11-21T08:13:02;94567.88;;;8.04;80.81
11347;BME280;5728;42.722;23.258;2023-11-21T08:15:29;94571.81;;;7.41;79.97
11347;BME280;5728;42.722;23.258;2023-11-21T08:17:57;94572.53;;;7.58;82.83
11347;BME280;5728;42.722;23.258;2023-11-21T08:20:24;94578.16;;;8.07;80.97
11347;BME280;5728;42.722;23.258;2023-11-21T08:22:51;94572.25;;;7.97;81.86
11347;BME280;5728;42.722;23.258;2023-11-21T08:25:20;94573.94;;;7.98;80.37
11347;BME280;5728;42.722;23.258;2023-11-21T08:27:47;94575.69;;;7.93;79.93
11347;BME280;5728;42.722;23.258;2023-11-21T08:30:14;94572.25;;;7.97;82.58
11347;BME280;5728;42.722;23.258;2023-11-21T08:32:42;94566.38;;;8.67;79.76
11347;BME280;5728;42.722;23.258;2023-11-21T08:35:11;94569.22;;;9.14;76.21
11347;BME280;5728;42.722;23.258;2023-11-21T08:37:38;94567.69;;;8.99;77.00
11347;BME280;5728;42.722;23.258;2023-11-21T08:40:06;94564.31;;;8.96;77.09
11347;BME280;5728;42.722;23.258;2023-11-21T08:42:36;94565.81;;;9.12;76.74
11347;BME280;5728;42.722;23.258;2023-11-21T08:45:03;94570.91;;;9.18;75.51
11347;BME280;5728;42.722;23.258;2023-11-21T08:47:34;94568.44;;;9.11;74.38
11347;BME280;5728;42.722;23.258;2023-11-21T08:50:02;94560.56;;;9.18;76.05
11347;BME280;5728;42.722;23.258;2023-11-21T08:52:28;94548.06;;;9.47;75.70
11347;BME280;5728;42.722;23.258;2023-11-21T08:54:55;94545.78;;;9.84;73.97
11347;BME280;5728;42.722;23.258;2023-11-21T08:57:22;94537.44;;;10.17;73.40
11347;BME280;5728;42.722;23.258;2023-11-21T08:59:50;94533.25;;;10.09;72.85
11347;BME280;5728;42.722;23.258;2023-11-21T09:02:20;94529.25;;;10.42;72.45
11347;BME280;5728;42.722;23.258;2023-11-21T09:04:47;94522.44;;;10.36;71.84
11347;BME280;5728;42.722;23.258;2023-11-21T09:07:14;94519.13;;;10.28;71.99
11347;BME280;5728;42.722;23.258;2023-11-21T09:09:41;94509.75;;;10.67;71.41
11347;BME280;5728;42.722;23.258;2023-11-21T09:12:07;94501.69;;;10.35;71.34
11347;BME280;5728;42.722;23.258;2023-11-21T09:14:37;94498.88;;;10.01;72.46
11347;BME280;5728;42.722;23.258;2023-11-21T09:17:05;94492.44;;;10.24;73.36
11347;BME280;5728;42.722;23.258;2023-11-21T09:19:36;94477.38;;;10.43;71.76
11347;BME280;5728;42.722;23.258;2023-11-21T09:22:02;94478.78;;;10.58;71.72
11347;BME280;5728;42.722;23.258;2023-11-21T09:24:30;94470.03;;;10.20;70.86
11347;BME280;5728;42.722;23.258;2023-11-21T09:26:56;94459.16;;;10.46;70.75
11347;BME280;5728;42.722;23.258;2023-11-21T09:29:23;94453.66;;;10.18;70.88
11347;BME280;5728;42.722;23.258;2023-11-21T09:31:50;94455.56;;;10.09;71.82
11347;BME280;5728;42.722;23.258;2023-11-21T09:34:19;94451.94;;;10.19;73.21
11347;BME280;5728;42.722;23.258;2023-11-21T09:36:45;94459.72;;;10.17;72.57
11347;BME280;5728;42.722;23.258;2023-11-21T09:39:13;94454.47;;;10.63;70.79
11347;BME280;5728;42.722;23.258;2023-11-21T09:41:43;94444.22;;;10.99;69.45
11347;BME280;5728;42.722;23.258;2023-11-21T09:44:13;94437.91;;;11.45;67.81
11347;BME280;5728;42.722;23.258;2023-11-21T09:46:42;94416.47;;;11.02;67.58
11347;BME280;5728;42.722;23.258;2023-11-21T09:49:09;94398.66;;;11.24;67.48
11347;BME280;5728;42.722;23.258;2023-11-21T09:51:42;94401.97;;;11.29;66.67
11347;BME280;5728;42.722;23.258;2023-11-21T09:54:10;94398.31;;;11.37;68.88
11347;BME280;5728;42.722;23.258;2023-11-21T09:56:38;94392.69;;;11.54;67.39
11347;BME280;5728;42.722;23.258;2023-11-21T09:59:06;94392.13;;;12.10;65.75
11347;BME280;5728;42.722;23.258;2023-11-21T10:01:33;94405.06;;;11.08;65.89
11347;BME280;5728;42.722;23.258;2023-11-21T10:04:02;94402.50;;;10.69;67.89
11347;BME280;5728;42.722;23.258;2023-11-21T10:06:30;94395.44;;;11.48;67.08
11347;BME280;5728;42.722;23.258;2023-11-21T10:08:59;94390.56;;;11.36;66.85
11347;BME280;5728;42.722;23.258;2023-11-21T10:11:26;94387.63;;;11.83;65.33
11347;BME280;5728;42.722;23.258;2023-11-21T10:13:55;94389.25;;;11.20;66.65
11347;BME280;5728;42.722;23.258;2023-11-21T10:16:23;94379.81;;;10.77;68.17
11347;BME280;5728;42.722;23.258;2023-11-21T10:18:52;94379.78;;;11.51;66.70
11347;BME280;5728;42.722;23.258;2023-11-21T10:21:20;94361.50;;;11.89;65.01
11347;BME280;5728;42.722;23.258;2023-11-21T10:23:46;94360.44;;;12.27;65.69
11347;BME280;5728;42.722;23.258;2023-11-21T10:26:14;94348.53;;;12.18;64.64
11347;BME280;5728;42.722;23.258;2023-11-21T10:28:42;94363.03;;;12.27;63.48
11347;BME280;5728;42.722;23.258;2023-11-21T10:31:21;94361.75;;;11.80;64.24
11347;BME280;5728;42.722;23.258;2023-11-21T10:33:49;94344.19;;;11.88;64.62
11347;BME280;5728;42.722;23.258;2023-11-21T10:36:20;94348.19;;;11.69;65.71
11347;BME280;5728;42.722;23.258;2023-11-21T10:38:51;94349.06;;;11.70;64.91
11347;BME280;5728;42.722;23.258;2023-11-21T10:41:19;94350.84;;;11.98;66.67
11347;BME280;5728;42.722;23.258;2023-11-21T10:43:46;94362.22;;;11.62;64.05
11347;BME280;5728;42.722;23.258;2023-11-21T10:46:14;94348.97;;;11.04;66.64
11347;BME280;5728;42.722;23.258;2023-11-21T10:48:41;94324.38;;;11.52;66.35
11347;BME280;5728;42.722;23.258;2023-11-21T10:51:08;94334.44;;;11.64;64.20
11347;BME280;5728;42.722;23.258;2023-11-21T10:53:38;94328.19;;;11.39;67.75
11347;BME280;5728;42.722;23.258;2023-11-21T10:56:05;94343.63;;;10.35;69.06
11347;BME280;5728;42.722;23.258;2023-11-21T10:58:35;94329.38;;;10.90;69.11
11347;BME280;5728;42.722;23.258;2023-11-21T11:01:06;94331.22;;;11.22;68.49
11347;BME280;5728;42.722;23.258;2023-11-21T11:03:36;94326.09;;;10.84;68.22
11347;BME280;5728;42.722;23.258;2023-11-21T11:06:04;94318.78;;;11.35;67.47
11347;BME280;5728;42.722;23.258;2023-11-21T11:08:36;94314.16;;;11.46;67.10
11347;BME280;5728;42.722;23.258;2023-11-21T11:11:04;94307.03;;;11.86;65.09
11347;BME280;5728;42.722;23.258;2023-11-21T11:13:31;94305.44;;;12.11;64.42
11347;BME280;5728;42.722;23.258;2023-11-21T11:16:01;94293.53;;;12.61;62.52
11347;BME280;5728;42.722;23.258;2023-11-21T11:18:29;94288.47;;;12.85;61.20
11347;BME280;5728;42.722;23.258;2023-11-21T11:20:56;94289.63;;;13.02;60.82
11347;BME280;5728;42.722;23.258;2023-11-21T11:23:30;94290.47;;;13.03;59.63
11347;BME280;5728;42.722;23.258;2023-11-21T11:26:05;94286.16;;;13.02;60.93
11347;BME280;5728;42.722;23.258;2023-11-21T11:28:35;94279.22;;;12.76;61.66
11347;BME280;5728;42.722;23.258;2023-11-21T11:31:13;94280.63;;;12.86;61.17
11347;BME280;5728;42.722;23.258;2023-11-21T11:33:43;94275.69;;;12.77;60.40
11347;BME280;5728;42.722;23.258;2023-11-21T11:36:13;94277.91;;;12.63;61.51
11347;BME280;5728;42.722;23.258;2023-11-21T11:38:45;94275.44;;;12.31;63.27
11347;BME280;5728;42.722;23.258;2023-11-21T11:41:11;94291.72;;;12.06;63.56
11347;BME280;5728;42.722;23.258;2023-11-21T11:43:38;94299.06;;;12.23;62.80
11347;BME280;5728;42.722;23.258;2023-11-21T11:46:10;94293.88;;;11.92;68.22
11347;BME280;5728;42.722;23.258;2023-11-21T11:48:39;94300.31;;;11.79;67.11
11347;BME280;5728;42.722;23.258;2023-11-21T11:51:07;94304.47;;;11.19;68.60
11347;BME280;5728;42.722;23.258;2023-11-21T11:53:37;94290.22;;;11.35;70.62
11347;BME280;5728;42.722;23.258;2023-11-21T11:56:24;94287.53;;;11.38;70.44
11347;BME280;5728;42.722;23.258;2023-11-21T11:58:51;94277.81;;;11.46;71.16
11347;BME280;5728;42.722;23.258;2023-11-21T12:01:20;94287.50;;;11.39;73.52
11347;BME280;5728;42.722;23.258;2023-11-21T12:06:32;94299.81;;;10.98;76.45
11347;BME280;5728;42.722;23.258;2023-11-21T12:09:00;94299.16;;;10.89;76.26
11347;BME280;5728;42.722;23.258;2023-11-21T12:11:30;94292.69;;;10.70;78.64
11347;BME280;5728;42.722;23.258;2023-11-21T12:13:56;94296.00;;;10.40;81.36
11347;BME280;5728;42.722;23.258;2023-11-21T12:16:25;94283.84;;;10.44;81.83
11347;BME280;5728;42.722;23.258;2023-11-21T12:18:53;94280.19;;;10.12;81.62
11347;BME280;5728;42.722;23.258;2023-11-21T12:21:20;94274.16;;;10.10;82.10
11347;BME280;5728;42.722;23.258;2023-11-21T12:23:46;94278.94;;;10.30;82.21
11347;BME280;5728;42.722;23.258;2023-11-21T12:26:13;94278.13;;;10.30;82.68
11347;BME280;5728;42.722;23.258;2023-11-21T12:28:40;94275.19;;;10.03;81.73
11347;BME280;5728;42.722;23.258;2023-11-21T12:31:07;94284.00;;;9.95;83.54
11347;BME280;5728;42.722;23.258;2023-11-21T12:33:35;94277.75;;;10.05;82.78
11347;BME280;5728;42.722;23.258;2023-11-21T12:36:02;94281.41;;;9.95;82.60
11347;BME280;5728;42.722;23.258;2023-11-21T12:38:33;94272.81;;;9.94;84.42
11347;BME280;5728;42.722;23.258;2023-11-21T12:41:00;94272.13;;;10.26;82.50
11347;BME280;5728;42.722;23.258;2023-11-21T12:43:26;94266.91;;;10.29;84.32
11347;BME280;5728;42.722;23.258;2023-11-21T12:46:04;94260.56;;;10.01;80.54
11347;BME280;5728;42.722;23.258;2023-11-21T12:48:31;94254.91;;;9.82;85.09
11347;BME280;5728;42.722;23.258;2023-11-21T12:50:59;94245.84;;;10.04;83.92
11347;BME280;5728;42.722;23.258;2023-11-21T12:53:28;94254.09;;;9.80;83.06
11347;BME280;5728;42.722;23.258;2023-11-21T12:56:02;94248.44;;;10.03;83.97
11347;BME280;5728;42.722;23.258;2023-11-21T12:58:29;94248.31;;;10.09;82.57
11347;BME280;5728;42.722;23.258;2023-11-21T13:00:55;94237.16;;;9.66;84.21
11347;BME280;5728;42.722;23.258;2023-11-21T13:03:24;94237.63;;;9.84;84.92
11347;BME280;5728;42.722;23.258;2023-11-21T13:05:52;94240.13;;;9.87;84.26
11347;BME280;5728;42.722;23.258;2023-11-21T13:08:25;94231.84;;;10.11;84.07
11347;BME280;5728;42.722;23.258;2023-11-21T13:10:54;94233.50;;;10.17;83.98
11347;BME280;5728;42.722;23.258;2023-11-21T13:13:22;94244.94;;;10.05;83.67